Time;durP1;ratioP1;P1;durP2;ratioP2;P2;SDS_P1;SDS_P2;PMS_P1;PMS_P2;Temp;Humidity;BMP_temperature;BMP_pressure;BME280_temperature;BME280_humidity;BME280_pressure;Samples;Min_cycle;Max_cycle;Signal;HPM_P1;HPM_P2
2022/11/17 00:01:44;;;;;;;11.35;6.30;;;;;;;;;;5061722;28;20223;-66
2022/11/17 00:04:10;;;;;;;10.40;6.63;;;;;;;;;;5061616;28;20223;-66
2022/11/17 00:06:37;;;;;;;11.32;6.75;;;;;;;;;;5061555;28;20196;-66
2022/11/17 00:09:03;;;;;;;12.35;6.57;;;;;;;;;;5061483;28;20205;-66
2022/11/17 00:14:31;;;;;;;9.18;6.32;;;;;;;;;;5061632;28;20231;-66
2022/11/17 00:14:35;;;;;;;13.48;7.38;;;;;;;;;;5061751;28;20196;-66
2022/11/17 00:17:03;;;;;;;11.25;5.93;;;;;;;;;;5061557;28;20360;-67
2022/11/17 00:22:13;;;;;;;9.88;6.43;;;;;;;;;;5061360;28;20196;-67
2022/11/17 00:24:40;;;;;;;13.80;6.97;;;;;;;;;;5061397;28;20220;-67
2022/11/17 00:27:06;;;;;;;9.27;5.90;;;;;;;;;;5061346;28;20300;-67
2022/11/17 00:29:33;;;;;;;8.82;6.07;;;;;;;;;;5061064;28;20400;-67
2022/11/17 00:34:44;;;;;;;11.27;6.57;;;;;;;;;;5061328;28;20188;-67
2022/11/17 00:37:11;;;;;;;11.40;5.35;;;;;;;;;;5061424;28;20209;-67
2022/11/17 00:39:38;;;;;;;10.20;6.50;;;;;;;;;;5060726;28;20227;-66
2022/11/17 00:42:04;;;;;;;11.30;6.47;;;;;;;;;;5061186;28;20197;-66
2022/11/17 00:44:30;;;;;;;11.85;7.03;;;;;;;;;;5061094;28;20197;-66
2022/11/17 00:46:57;;;;;;;10.70;7.82;;;;;;;;;;5061320;28;20197;-66
2022/11/17 00:49:25;;;;;;;20.17;8.85;;;;;;;;;;5061002;28;20205;-66
2022/11/17 00:51:53;;;;;;;12.38;7.75;;;;;;;;;;5061183;28;20197;-66
2022/11/17 00:54:19;;;;;;;15.10;8.23;;;;;;;;;;5061472;28;20201;-66
2022/11/17 00:56:46;;;;;;;12.65;8.48;;;;;;;;;;5064633;28;20203;-66
2022/11/17 00:59:13;;;;;;;14.88;8.15;;;;;;;;;;5064620;28;20517;-67
2022/11/17 01:01:39;;;;;;;15.88;7.60;;;;;;;;;;5064738;28;20209;-67
2022/11/17 01:04:06;;;;;;;17.75;8.07;;;;;;;;;;5064748;28;20225;-66
2022/11/17 01:06:33;;;;;;;12.93;7.60;;;;;;;;;;5064695;28;20193;-66
2022/11/17 01:09:01;;;;;;;9.82;7.03;;;;;;;;;;5064343;28;20197;-66
2022/11/17 01:11:28;;;;;;;14.60;7.25;;;;;;;;;;5064958;28;20209;-66
2022/11/17 01:13:55;;;;;;;10.10;6.55;;;;;;;;;;5064762;28;20519;-66
2022/11/17 01:16:22;;;;;;;10.95;6.43;;;;;;;;;;5064581;28;20197;-66
2022/11/17 01:18:49;;;;;;;12.57;6.55;;;;;;;;;;5063953;28;20205;-66
2022/11/17 01:21:17;;;;;;;6.85;5.30;;;;;;;;;;5064827;28;20476;-66
2022/11/17 01:23:44;;;;;;;9.43;6.07;;;;;;;;;;5064130;28;20223;-66
2022/11/17 01:26:12;;;;;;;6.40;5.53;;;;;;;;;;5064490;28;20209;-66
2022/11/17 01:28:38;;;;;;;12.52;6.50;;;;;;;;;;5063976;28;20217;-66
2022/11/17 01:31:06;;;;;;;16.55;5.82;;;;;;;;;;5064257;28;20594;-67
2022/11/17 01:33:32;;;;;;;12.38;7.13;;;;;;;;;;5064041;28;20542;-67
2022/11/17 01:36:02;;;;;;;8.10;6.00;;;;;;;;;;5064034;28;20209;-67
2022/11/17 01:38:29;;;;;;;9.52;5.97;;;;;;;;;;5063637;28;20504;-66
2022/11/17 01:40:56;;;;;;;6.88;5.43;;;;;;;;;;5064153;28;20201;-66
2022/11/17 01:43:41;;;;;;;10.25;6.10;;;;;;;;;;5064073;28;20221;-66
2022/11/17 01:46:11;;;;;;;5.95;5.45;;;;;;;;;;5063895;28;20563;-66
2022/11/17 01:48:37;;;;;;;6.68;5.45;;;;;;;;;;5063548;28;20189;-66
2022/11/17 01:51:04;;;;;;;10.25;5.72;;;;;;;;;;5063591;28;20205;-66
2022/11/17 01:53:33;;;;;;;6.57;5.65;;;;;;;;;;5063832;28;20193;-66
2022/11/17 01:56:03;;;;;;;7.45;5.57;;;;;;;;;;5063742;28;20504;-66
2022/11/17 01:58:31;;;;;;;6.72;5.93;;;;;;;;;;5063932;28;20399;-66
2022/11/17 02:00:58;;;;;;;8.82;5.82;;;;;;;;;;5063325;28;20267;-66
2022/11/17 02:03:25;;;;;;;6.30;5.65;;;;;;;;;;5063351;28;20679;-66
2022/11/17 02:05:55;;;;;;;8.00;6.30;;;;;;;;;;5062750;28;20205;-66
2022/11/17 02:08:23;;;;;;;10.82;6.97;;;;;;;;;;5063283;28;20197;-66
2022/11/17 02:10:50;;;;;;;6.90;5.75;;;;;;;;;;5062836;28;20212;-66
2022/11/17 02:13:16;;;;;;;7.63;6.22;;;;;;;;;;5063204;28;20208;-67
2022/11/17 02:15:42;;;;;;;9.90;5.88;;;;;;;;;;5063627;28;20197;-67
2022/11/17 02:18:10;;;;;;;7.45;5.32;;;;;;;;;;5063059;28;20197;-66
2022/11/17 02:20:41;;;;;;;9.40;5.95;;;;;;;;;;5062915;28;20393;-66
2022/11/17 02:23:29;;;;;;;6.10;5.50;;;;;;;;;;5063088;28;20212;-66
2022/11/17 02:26:10;;;;;;;6.30;5.43;;;;;;;;;;5062923;28;20391;-66
2022/11/17 02:28:41;;;;;;;6.05;5.47;;;;;;;;;;5062830;28;20217;-66
2022/11/17 02:31:16;;;;;;;7.85;5.43;;;;;;;;;;5062987;28;20197;-66
2022/11/17 02:33:49;;;;;;;6.05;5.40;;;;;;;;;;5062951;28;20200;-66
2022/11/17 02:36:17;;;;;;;6.88;5.32;;;;;;;;;;5062732;28;20201;-66
2022/11/17 02:38:49;;;;;;;5.93;5.18;;;;;;;;;;5062490;28;20196;-66
2022/11/17 02:41:18;;;;;;;5.07;4.57;;;;;;;;;;5062938;28;20203;-66
2022/11/17 02:44:03;;;;;;;8.30;5.25;;;;;;;;;;5062916;28;20531;-66
2022/11/17 02:46:33;;;;;;;5.63;5.07;;;;;;;;;;5062677;28;20267;-67
2022/11/17 02:49:01;;;;;;;7.00;5.28;;;;;;;;;;5062396;28;20201;-67
2022/11/17 02:51:28;;;;;;;5.40;4.30;;;;;;;;;;5062430;28;20193;-67
2022/11/17 02:53:56;;;;;;;4.97;4.55;;;;;;;;;;5062498;28;20255;-67
2022/11/17 02:56:22;;;;;;;5.07;4.60;;;;;;;;;;5062591;28;20197;-67
2022/11/17 02:58:52;;;;;;;4.63;4.32;;;;;;;;;;5062374;28;20385;-66
2022/11/17 03:01:25;;;;;;;6.00;4.80;;;;;;;;;;5062828;28;20197;-66
2022/11/17 03:03:57;;;;;;;4.85;4.20;;;;;;;;;;5062531;28;20213;-66
2022/11/17 03:06:28;;;;;;;4.78;4.25;;;;;;;;;;5062357;28;20203;-66
2022/11/17 03:08:59;;;;;;;5.50;4.75;;;;;;;;;;5062039;28;20205;-66
2022/11/17 03:11:29;;;;;;;6.60;5.00;;;;;;;;;;5062325;28;20372;-66
2022/11/17 03:13:59;;;;;;;4.53;4.15;;;;;;;;;;5062307;28;20399;-66
2022/11/17 03:16:29;;;;;;;6.47;4.88;;;;;;;;;;5062399;28;20205;-66
2022/11/17 03:19:04;;;;;;;5.10;4.70;;;;;;;;;;5060873;28;20538;-66
2022/11/17 03:21:33;;;;;;;4.43;4.13;;;;;;;;;;5062095;28;20200;-66
2022/11/17 03:24:02;;;;;;;5.22;4.82;;;;;;;;;;5061899;28;20532;-66
2022/11/17 03:26:31;;;;;;;5.03;4.57;;;;;;;;;;5062249;28;20193;-66
2022/11/17 03:28:59;;;;;;;5.63;4.43;;;;;;;;;;5061905;28;20239;-66
2022/11/17 03:31:27;;;;;;;5.38;4.88;;;;;;;;;;5061962;28;20492;-66
2022/11/17 03:33:54;;;;;;;4.38;3.97;;;;;;;;;;5061774;28;20203;-66
2022/11/17 03:36:22;;;;;;;4.88;4.38;;;;;;;;;;5061907;28;20353;-66
2022/11/17 03:38:51;;;;;;;4.85;4.45;;;;;;;;;;5062048;28;20228;-66
2022/11/17 03:41:18;;;;;;;4.97;4.45;;;;;;;;;;5062041;28;20204;-66
2022/11/17 03:43:47;;;;;;;6.47;4.55;;;;;;;;;;5061657;28;20228;-66
2022/11/17 03:46:16;;;;;;;5.20;4.70;;;;;;;;;;5061697;28;20235;-66
2022/11/17 03:48:45;;;;;;;4.50;3.72;;;;;;;;;;5061878;28;20197;-66
2022/11/17 03:51:12;;;;;;;6.93;4.40;;;;;;;;;;5061386;28;20393;-66
2022/11/17 03:53:39;;;;;;;4.03;3.72;;;;;;;;;;5061862;28;20496;-66
2022/11/17 03:56:09;;;;;;;4.72;4.15;;;;;;;;;;5061743;28;20203;-66
2022/11/17 03:58:40;;;;;;;3.67;3.35;;;;;;;;;;5061416;28;20203;-66
2022/11/17 04:01:08;;;;;;;4.32;3.92;;;;;;;;;;5061642;28;20197;-66
2022/11/17 04:03:36;;;;;;;3.67;3.35;;;;;;;;;;5061410;28;20217;-66
2022/11/17 04:06:03;;;;;;;3.80;3.50;;;;;;;;;;5061442;28;20275;-66
2022/11/17 04:08:30;;;;;;;3.97;3.67;;;;;;;;;;5061149;28;20538;-66
2022/11/17 04:16:24;;;;;;;3.13;2.92;;;;;;;;;;5061478;28;20368;-66
2022/11/17 04:18:52;;;;;;;4.13;3.15;;;;;;;;;;5061278;28;20373;-66
2022/11/17 04:21:18;;;;;;;3.53;3.20;;;;;;;;;;5061553;28;20201;-66
2022/11/17 04:23:45;;;;;;;3.72;3.08;;;;;;;;;;5061300;28;20223;-66
2022/11/17 04:28:54;;;;;;;3.97;2.70;;;;;;;;;;5040005;28;20239;-66
2022/11/17 04:31:22;;;;;;;2.55;2.45;;;;;;;;;;5065424;28;20203;-66
2022/11/17 04:33:49;;;;;;;2.75;2.55;;;;;;;;;;5065135;28;20209;-66
2022/11/17 04:36:18;;;;;;;3.10;2.85;;;;;;;;;;5065122;28;20197;-66
2022/11/17 04:38:44;;;;;;;2.63;2.38;;;;;;;;;;5064924;28;20196;-66
2022/11/17 04:43:56;;;;;;;2.83;2.72;;;;;;;;;;5065002;28;20503;-66
2022/11/17 04:46:23;;;;;;;2.72;2.63;;;;;;;;;;5065075;28;20504;-66
2022/11/17 04:48:49;;;;;;;2.60;2.50;;;;;;;;;;5064763;28;20201;-66
2022/11/17 04:51:17;;;;;;;2.42;2.33;;;;;;;;;;5064919;28;20201;-66
2022/11/17 04:53:44;;;;;;;3.13;2.92;;;;;;;;;;5064705;28;20200;-66
2022/11/17 04:56:10;;;;;;;2.78;2.58;;;;;;;;;;5065161;28;20483;-66
2022/11/17 04:58:36;;;;;;;3.05;2.90;;;;;;;;;;5064793;28;20212;-66
2022/11/17 05:01:12;;;;;;;3.50;3.08;;;;;;;;;;5064662;28;20197;-66
2022/11/17 05:03:39;;;;;;;3.45;3.17;;;;;;;;;;5064608;28;20729;-66
2022/11/17 05:06:06;;;;;;;3.15;2.97;;;;;;;;;;5064606;28;20398;-66
2022/11/17 05:08:34;;;;;;;2.72;2.60;;;;;;;;;;5064641;28;20196;-66
2022/11/17 05:13:44;;;;;;;3.28;3.05;;;;;;;;;;5064639;28;20436;-66
2022/11/17 05:18:54;;;;;;;3.90;3.60;;;;;;;;;;5064033;28;20211;-66
2022/11/17 05:21:21;;;;;;;3.80;3.50;;;;;;;;;;5064489;28;20393;-66
2022/11/17 05:23:53;;;;;;;5.45;3.88;;;;;;;;;;5064342;28;20225;-66
2022/11/17 05:26:20;;;;;;;7.45;4.57;;;;;;;;;;5064438;28;20568;-66
2022/11/17 05:28:47;;;;;;;5.93;5.28;;;;;;;;;;5064425;28;20221;-66
2022/11/17 05:31:13;;;;;;;6.10;4.93;;;;;;;;;;5064089;28;20687;-66
2022/11/17 05:33:40;;;;;;;6.28;4.72;;;;;;;;;;5064255;28;20204;-67
2022/11/17 05:36:06;;;;;;;5.68;4.95;;;;;;;;;;5064120;28;20197;-67
2022/11/17 05:38:32;;;;;;;6.15;4.53;;;;;;;;;;5063952;28;20199;-67
2022/11/17 05:41:00;;;;;;;5.50;4.53;;;;;;;;;;5062831;28;20204;-67
2022/11/17 05:43:26;;;;;;;4.50;4.07;;;;;;;;;;5063818;28;20448;-67
2022/11/17 05:45:53;;;;;;;7.10;4.25;;;;;;;;;;5063682;28;20224;-67
2022/11/17 05:48:19;;;;;;;4.57;3.67;;;;;;;;;;5063762;28;20197;-66
2022/11/17 05:50:45;;;;;;;6.47;4.45;;;;;;;;;;5063835;28;20415;-66
2022/11/17 05:53:11;;;;;;;4.90;4.13;;;;;;;;;;5064148;28;20201;-66
2022/11/17 05:55:38;;;;;;;8.77;4.25;;;;;;;;;;5063565;28;20193;-66
2022/11/17 05:58:09;;;;;;;5.93;4.20;;;;;;;;;;5063370;28;20207;-66
2022/11/17 06:00:36;;;;;;;6.32;4.47;;;;;;;;;;5063444;28;20212;-66
2022/11/17 06:03:05;;;;;;;5.15;4.63;;;;;;;;;;5063619;28;20239;-66
2022/11/17 06:05:31;;;;;;;5.13;4.00;;;;;;;;;;5063552;28;20232;-66
2022/11/17 06:07:57;;;;;;;5.10;4.60;;;;;;;;;;5063244;28;20201;-66
2022/11/17 06:10:24;;;;;;;6.95;4.88;;;;;;;;;;5063474;28;20208;-66
2022/11/17 06:12:50;;;;;;;4.63;4.22;;;;;;;;;;5063160;28;20315;-67
2022/11/17 06:15:18;;;;;;;7.53;5.18;;;;;;;;;;5063571;28;20224;-68
2022/11/17 06:17:47;;;;;;;4.93;4.50;;;;;;;;;;5054804;28;20204;-58
2022/11/17 06:20:15;;;;;;;4.50;4.20;;;;;;;;;;5050304;28;20217;-59
2022/11/17 06:22:41;;;;;;;5.20;3.97;;;;;;;;;;5056375;28;20215;-59
2022/11/17 06:25:08;;;;;;;4.50;4.20;;;;;;;;;;5048195;28;20228;-59
2022/11/17 06:27:35;;;;;;;4.60;4.13;;;;;;;;;;5037349;28;20548;-59
2022/11/17 06:30:03;;;;;;;4.63;4.13;;;;;;;;;;5037902;28;20209;-59
2022/11/17 06:32:31;;;;;;;4.72;4.32;;;;;;;;;;5043545;28;20585;-59
2022/11/17 06:34:57;;;;;;;6.78;4.18;;;;;;;;;;5037485;28;20304;-60
2022/11/17 06:37:24;;;;;;;5.70;4.40;;;;;;;;;;5046744;28;20505;-60
2022/11/17 06:39:50;;;;;;;7.53;4.47;;;;;;;;;;5042535;28;20359;-60
2022/11/17 06:42:16;;;;;;;4.93;4.50;;;;;;;;;;5035920;28;20221;-60
2022/11/17 06:44:42;;;;;;;6.25;4.32;;;;;;;;;;5035637;28;20352;-60
2022/11/17 06:47:09;;;;;;;5.18;4.55;;;;;;;;;;5043315;28;20212;-58
2022/11/17 06:49:36;;;;;;;7.32;4.53;;;;;;;;;;5054122;28;20220;-59
2022/11/17 06:52:03;;;;;;;6.65;4.75;;;;;;;;;;5055006;28;20285;-60
2022/11/17 06:54:29;;;;;;;4.47;4.20;;;;;;;;;;5055722;28;20292;-60
2022/11/17 06:56:55;;;;;;;6.40;4.65;;;;;;;;;;5056172;28;20220;-60
2022/11/17 06:59:22;;;;;;;6.00;4.85;;;;;;;;;;5055825;28;20224;-60
2022/11/17 07:01:48;;;;;;;5.47;4.72;;;;;;;;;;5055442;28;20519;-59
2022/11/17 07:04:14;;;;;;;6.15;4.65;;;;;;;;;;5048900;28;20422;-60
2022/11/17 07:06:42;;;;;;;7.05;5.00;;;;;;;;;;5055469;28;20420;-60
2022/11/17 07:09:08;;;;;;;5.13;4.40;;;;;;;;;;5055290;28;20209;-59
2022/11/17 07:11:35;;;;;;;7.45;5.18;;;;;;;;;;5052777;28;20217;-60
2022/11/17 07:14:02;;;;;;;6.80;5.03;;;;;;;;;;5045324;28;20281;-60
2022/11/17 07:16:29;;;;;;;5.10;4.70;;;;;;;;;;5042667;28;20221;-60
2022/11/17 07:18:58;;;;;;;8.02;5.30;;;;;;;;;;5034367;28;20236;-60
2022/11/17 07:21:24;;;;;;;8.80;6.03;;;;;;;;;;5035593;28;20244;-60
2022/11/17 07:23:51;;;;;;;9.52;7.38;;;;;;;;;;5035650;28;20218;-60
2022/11/17 07:26:18;;;;;;;11.57;6.00;;;;;;;;;;5042235;28;20539;-60
2022/11/17 07:28:44;;;;;;;11.00;5.97;;;;;;;;;;5055399;28;20225;-60
2022/11/17 07:31:10;;;;;;;15.00;5.82;;;;;;;;;;5054681;28;20219;-60
2022/11/17 07:33:36;;;;;;;9.32;5.90;;;;;;;;;;5055098;28;20213;-60
2022/11/17 07:36:03;;;;;;;7.85;5.32;;;;;;;;;;5055078;28;20215;-59
2022/11/17 07:38:30;;;;;;;6.28;5.35;;;;;;;;;;5054856;28;20213;-59
2022/11/17 07:40:58;;;;;;;7.57;5.18;;;;;;;;;;5055185;28;20521;-60
2022/11/17 07:43:25;;;;;;;9.90;5.47;;;;;;;;;;5054695;28;20227;-60
2022/11/17 07:45:51;;;;;;;10.23;5.53;;;;;;;;;;5054791;28;20248;-60
2022/11/17 07:48:17;;;;;;;16.33;5.57;;;;;;;;;;5053887;28;20479;-60
2022/11/17 07:50:44;;;;;;;10.48;5.75;;;;;;;;;;5049755;28;20212;-60
2022/11/17 07:53:10;;;;;;;22.50;7.60;;;;;;;;;;5050278;28;20226;-58
2022/11/17 07:55:36;;;;;;;18.45;8.50;;;;;;;;;;5034607;28;20390;-59
2022/11/17 07:58:04;;;;;;;22.05;11.80;;;;;;;;;;5033537;28;20209;-59
2022/11/17 08:00:32;;;;;;;40.40;16.35;;;;;;;;;;5034778;28;20276;-59
2022/11/17 08:03:00;;;;;;;23.50;11.15;;;;;;;;;;5034738;28;20391;-59
2022/11/17 08:05:29;;;;;;;25.33;8.05;;;;;;;;;;5053698;28;20228;-59
2022/11/17 08:07:56;;;;;;;12.20;5.00;;;;;;;;;;5058185;28;20551;-59
2022/11/17 08:10:25;;;;;;;6.57;2.80;;;;;;;;;;5052515;28;20754;-57
2022/11/17 08:12:52;;;;;;;9.65;3.10;;;;;;;;;;5038290;28;20209;-57
2022/11/17 08:15:20;;;;;;;6.97;2.70;;;;;;;;;;5049441;28;20520;-58
2022/11/17 08:17:50;;;;;;;5.30;2.53;;;;;;;;;;5058899;28;20201;-56
2022/11/17 08:20:17;;;;;;;8.50;2.22;;;;;;;;;;5059075;28;20501;-57
2022/11/17 08:22:43;;;;;;;3.30;1.77;;;;;;;;;;5059207;28;20208;-58
2022/11/17 08:25:09;;;;;;;2.22;1.45;;;;;;;;;;5059236;28;20233;-58
2022/11/17 08:27:35;;;;;;;1.73;1.38;;;;;;;;;;5058839;28;20225;-56
2022/11/17 08:30:02;;;;;;;3.25;2.42;;;;;;;;;;5059137;28;20516;-58
2022/11/17 08:32:29;;;;;;;4.68;1.85;;;;;;;;;;5059562;28;20215;-58
2022/11/17 08:34:56;;;;;;;3.50;1.77;;;;;;;;;;5059962;28;20559;-57
2022/11/17 08:37:22;;;;;;;3.70;1.42;;;;;;;;;;5060013;28;20205;-58
2022/11/17 08:39:48;;;;;;;3.85;2.03;;;;;;;;;;5058920;28;20216;-59
2022/11/17 08:42:15;;;;;;;2.92;0.85;;;;;;;;;;5059714;28;20205;-59
2022/11/17 08:44:42;;;;;;;2.45;1.20;;;;;;;;;;5059545;28;20411;-59
2022/11/17 08:47:08;;;;;;;1.98;1.00;;;;;;;;;;5059444;28;20213;-59
2022/11/17 08:49:35;;;;;;;1.50;1.10;;;;;;;;;;5058723;28;20216;-59
2022/11/17 08:52:02;;;;;;;2.10;0.80;;;;;;;;;;5059523;28;20217;-59
2022/11/17 08:54:28;;;;;;;2.65;1.15;;;;;;;;;;5059051;28;20645;-58
2022/11/17 08:56:56;;;;;;;2.35;1.58;;;;;;;;;;5059154;28;20213;-59
2022/11/17 08:59:22;;;;;;;5.88;1.85;;;;;;;;;;5058732;28;20209;-59
2022/11/17 09:01:49;;;;;;;3.95;2.75;;;;;;;;;;5059172;28;20254;-59
2022/11/17 09:04:15;;;;;;;1.50;0.80;;;;;;;;;;5059601;28;20409;-59
2022/11/17 09:06:43;;;;;;;2.78;1.00;;;;;;;;;;5059339;28;20232;-59
2022/11/17 09:09:09;;;;;;;2.60;0.60;;;;;;;;;;5058826;28;20201;-59
2022/11/17 09:11:35;;;;;;;3.72;0.70;;;;;;;;;;5058877;28;20217;-59
2022/11/17 09:14:01;;;;;;;1.52;0.80;;;;;;;;;;5058636;28;20223;-58
2022/11/17 09:16:28;;;;;;;1.95;0.70;;;;;;;;;;5059031;28;20205;-59
2022/11/17 09:18:55;;;;;;;2.38;0.60;;;;;;;;;;5058010;28;20453;-59
2022/11/17 09:21:22;;;;;;;1.13;0.60;;;;;;;;;;5058691;28;20270;-59
2022/11/17 09:23:49;;;;;;;0.52;0.52;;;;;;;;;;5058748;28;20392;-59
2022/11/17 09:26:17;;;;;;;1.52;0.60;;;;;;;;;;5058577;28;20291;-59
2022/11/17 09:28:44;;;;;;;14.80;6.28;;;;;;;;;;5058124;28;20233;-59
2022/11/17 09:31:11;;;;;;;114.90;40.22;;;;;;;;;;5058805;28;20208;-59
2022/11/17 09:33:37;;;;;;;5.47;2.08;;;;;;;;;;5059008;28;20544;-59
2022/11/17 09:36:06;;;;;;;1.45;0.63;;;;;;;;;;5059009;28;20201;-59
2022/11/17 09:38:32;;;;;;;1.17;0.95;;;;;;;;;;5058623;28;20215;-59
2022/11/17 09:41:00;;;;;;;0.95;0.50;;;;;;;;;;5058301;28;20449;-59
2022/11/17 09:43:28;;;;;;;2.00;0.90;;;;;;;;;;5058593;28;20780;-59
2022/11/17 09:45:57;;;;;;;1.20;1.00;;;;;;;;;;5058130;28;20434;-59
2022/11/17 09:48:29;;;;;;;1.02;0.68;;;;;;;;;;5058093;28;20557;-59
2022/11/17 09:50:57;;;;;;;2.40;1.02;;;;;;;;;;5058028;28;20217;-59
2022/11/17 09:53:24;;;;;;;2.20;0.90;;;;;;;;;;5058269;28;20524;-59
2022/11/17 09:55:53;;;;;;;1.42;0.52;;;;;;;;;;5058026;28;20442;-59
2022/11/17 09:58:27;;;;;;;1.25;0.60;;;;;;;;;;5057894;28;20526;-59
2022/11/17 10:00:53;;;;;;;0.73;0.70;;;;;;;;;;5057975;28;20414;-59
2022/11/17 10:03:21;;;;;;;1.75;0.50;;;;;;;;;;5058208;28;20208;-58
2022/11/17 10:05:47;;;;;;;1.52;0.50;;;;;;;;;;5058184;28;20255;-59
2022/11/17 10:08:16;;;;;;;3.10;0.65;;;;;;;;;;5057571;28;20216;-59
2022/11/17 10:10:44;;;;;;;1.60;0.80;;;;;;;;;;5057555;28;20213;-58
2022/11/17 10:13:13;;;;;;;3.42;1.00;;;;;;;;;;5057743;28;20209;-58
2022/11/17 10:15:45;;;;;;;2.70;0.63;;;;;;;;;;5057858;28;20205;-59
2022/11/17 10:18:13;;;;;;;1.58;0.57;;;;;;;;;;5057218;28;20256;-59
2022/11/17 10:20:39;;;;;;;3.08;1.13;;;;;;;;;;5057469;28;20243;-59
2022/11/17 10:23:06;;;;;;;3.55;0.80;;;;;;;;;;5057463;28;20217;-59
2022/11/17 10:25:37;;;;;;;1.40;0.93;;;;;;;;;;5057593;28;20225;-59
2022/11/17 10:28:04;;;;;;;3.05;0.60;;;;;;;;;;5056503;28;20229;-59
2022/11/17 10:30:30;;;;;;;1.63;0.50;;;;;;;;;;5057308;28;20209;-59
2022/11/17 10:32:59;;;;;;;1.40;0.60;;;;;;;;;;5057627;28;20527;-59
2022/11/17 10:35:26;;;;;;;1.38;0.60;;;;;;;;;;5057298;28;20205;-59
2022/11/17 10:37:54;;;;;;;3.80;0.55;;;;;;;;;;5057109;28;20216;-59
2022/11/17 10:40:21;;;;;;;3.47;0.70;;;;;;;;;;5057017;28;20209;-59
2022/11/17 10:42:53;;;;;;;1.08;0.50;;;;;;;;;;5057381;28;20216;-59
2022/11/17 10:45:20;;;;;;;4.40;0.77;;;;;;;;;;5057307;28;20244;-59
2022/11/17 10:47:46;;;;;;;3.50;0.68;;;;;;;;;;5056538;28;20216;-59
2022/11/17 10:50:22;;;;;;;4.60;1.10;;;;;;;;;;5057051;28;20209;-59
2022/11/17 10:52:49;;;;;;;5.15;1.00;;;;;;;;;;5057257;28;20555;-59
2022/11/17 10:55:18;;;;;;;2.50;1.02;;;;;;;;;;5056992;28;20212;-58
2022/11/17 10:57:46;;;;;;;2.88;0.90;;;;;;;;;;5056869;28;20216;-59
2022/11/17 11:00:21;;;;;;;2.00;0.80;;;;;;;;;;5056781;28;20409;-59
2022/11/17 11:02:48;;;;;;;4.32;1.02;;;;;;;;;;5057097;28;20449;-59
2022/11/17 11:05:15;;;;;;;3.38;0.88;;;;;;;;;;5056905;28;20220;-59
2022/11/17 11:07:43;;;;;;;4.43;0.93;;;;;;;;;;5056683;28;20201;-59
2022/11/17 11:10:14;;;;;;;4.53;0.93;;;;;;;;;;5056456;28;20536;-59
2022/11/17 11:12:43;;;;;;;6.22;1.00;;;;;;;;;;5056850;28;20209;-59
2022/11/17 11:15:13;;;;;;;2.95;1.10;;;;;;;;;;5056816;28;20209;-57
2022/11/17 11:17:40;;;;;;;2.03;0.75;;;;;;;;;;5056431;28;20216;-57
2022/11/17 11:20:12;;;;;;;1.92;0.68;;;;;;;;;;5056211;28;20439;-58
2022/11/17 11:22:45;;;;;;;1.27;0.63;;;;;;;;;;5056807;28;20236;-56
2022/11/17 11:25:19;;;;;;;3.28;0.70;;;;;;;;;;5056609;28;20288;-57
2022/11/17 11:27:56;;;;;;;3.72;1.20;;;;;;;;;;5056364;28;20407;-57
2022/11/17 11:30:22;;;;;;;6.05;1.70;;;;;;;;;;5056305;28;20204;-56
2022/11/17 11:32:55;;;;;;;4.50;1.20;;;;;;;;;;5056876;28;20284;-57
2022/11/17 11:35:31;;;;;;;6.20;1.15;;;;;;;;;;5056317;28;20388;-57
2022/11/17 11:38:02;;;;;;;5.50;1.27;;;;;;;;;;5056262;28;20212;-57
2022/11/17 11:40:31;;;;;;;7.75;1.60;;;;;;;;;;5055148;28;20209;-57
2022/11/17 11:42:58;;;;;;;4.32;1.40;;;;;;;;;;5056444;28;20528;-57
2022/11/17 11:45:42;;;;;;;6.55;1.40;;;;;;;;;;5056764;28;20538;-58
2022/11/17 11:48:15;;;;;;;5.82;1.70;;;;;;;;;;5055745;28;20216;-57
2022/11/17 11:50:48;;;;;;;2.30;1.00;;;;;;;;;;5055978;28;20209;-57
2022/11/17 11:53:18;;;;;;;9.00;1.75;;;;;;;;;;5056397;28;20212;-57
2022/11/17 11:55:47;;;;;;;6.03;1.10;;;;;;;;;;5056489;28;20227;-57
2022/11/17 11:58:15;;;;;;;5.80;1.00;;;;;;;;;;5055914;28;20465;-57
2022/11/17 12:00:43;;;;;;;9.15;1.85;;;;;;;;;;5055971;28;20209;-56
2022/11/17 12:03:16;;;;;;;5.15;1.23;;;;;;;;;;5056107;28;20201;-58
2022/11/17 12:05:52;;;;;;;6.57;1.70;;;;;;;;;;5056199;28;20225;-57
2022/11/17 12:08:21;;;;;;;4.38;1.17;;;;;;;;;;5055735;28;20208;-56
2022/11/17 12:10:53;;;;;;;7.97;1.63;;;;;;;;;;5055932;28;20209;-58
2022/11/17 12:13:21;;;;;;;4.13;1.45;;;;;;;;;;5055704;28;20483;-57
2022/11/17 12:15:48;;;;;;;8.20;1.15;;;;;;;;;;5056219;28;20205;-56
2022/11/17 12:18:29;;;;;;;5.88;1.58;;;;;;;;;;5055947;28;20676;-57
2022/11/17 12:20:57;;;;;;;5.88;1.60;;;;;;;;;;5055758;28;20221;-57
2022/11/17 12:23:31;;;;;;;9.18;1.77;;;;;;;;;;5055902;28;20213;-58
2022/11/17 12:25:59;;;;;;;3.25;1.10;;;;;;;;;;5055998;28;20235;-58
2022/11/17 12:28:27;;;;;;;6.72;1.33;;;;;;;;;;5055494;28;20224;-58
2022/11/17 12:30:55;;;;;;;4.65;1.33;;;;;;;;;;5055599;28;20458;-58
2022/11/17 12:33:22;;;;;;;9.00;2.20;;;;;;;;;;5055974;28;20209;-58
2022/11/17 12:36:03;;;;;;;5.85;1.35;;;;;;;;;;5055815;28;20211;-57
2022/11/17 12:38:47;;;;;;;4.32;1.30;;;;;;;;;;5054789;28;20220;-58
2022/11/17 12:41:15;;;;;;;8.90;1.85;;;;;;;;;;5055650;28;20213;-58
2022/11/17 12:43:41;;;;;;;8.77;1.65;;;;;;;;;;5055609;28;20235;-58
2022/11/17 12:46:19;;;;;;;6.95;1.30;;;;;;;;;;5055695;28;20221;-56
2022/11/17 12:48:48;;;;;;;7.15;1.38;;;;;;;;;;5055005;28;20543;-58
2022/11/17 12:51:16;;;;;;;4.72;1.60;;;;;;;;;;5057687;28;20217;-57
2022/11/17 12:53:53;;;;;;;2.58;1.20;;;;;;;;;;5059622;28;20209;-58
2022/11/17 12:56:52;;;;;;;7.15;1.55;;;;;;;;;;5059398;28;20213;-58
2022/11/17 12:59:25;;;;;;;4.63;1.25;;;;;;;;;;5058717;28;20209;-58
2022/11/17 13:01:57;;;;;;;13.45;2.03;;;;;;;;;;5059228;28;20812;-58
2022/11/17 13:04:27;;;;;;;6.38;1.75;;;;;;;;;;5059184;28;20213;-58
2022/11/17 13:07:00;;;;;;;5.55;1.33;;;;;;;;;;5058889;28;20431;-58
2022/11/17 13:09:28;;;;;;;6.07;1.75;;;;;;;;;;5058896;28;20540;-58
2022/11/17 13:12:01;;;;;;;10.50;1.85;;;;;;;;;;5059092;28;20200;-58
2022/11/17 13:14:29;;;;;;;4.47;1.50;;;;;;;;;;5059001;28;20567;-58
2022/11/17 13:16:55;;;;;;;4.78;1.30;;;;;;;;;;5059193;28;20560;-58
2022/11/17 13:19:30;;;;;;;4.43;1.55;;;;;;;;;;5058503;28;20217;-58
2022/11/17 13:21:57;;;;;;;6.70;1.65;;;;;;;;;;5058678;28;20276;-58
2022/11/17 13:24:28;;;;;;;7.72;1.73;;;;;;;;;;5059193;28;20536;-58
2022/11/17 13:26:58;;;;;;;6.88;1.48;;;;;;;;;;5059057;28;20217;-58
2022/11/17 13:29:24;;;;;;;6.47;1.55;;;;;;;;;;5058092;28;20241;-58
2022/11/17 13:32:04;;;;;;;4.35;1.60;;;;;;;;;;5058987;28;20209;-58
2022/11/17 13:34:31;;;;;;;6.35;1.42;;;;;;;;;;5058356;28;20209;-58
2022/11/17 13:36:58;;;;;;;4.05;1.45;;;;;;;;;;5058282;28;20377;-58
2022/11/17 13:39:25;;;;;;;6.10;2.03;;;;;;;;;;5057604;28;20490;-58
2022/11/17 13:41:52;;;;;;;7.03;1.50;;;;;;;;;;5058148;28;20209;-58
2022/11/17 13:44:21;;;;;;;6.50;1.55;;;;;;;;;;5058417;28;20217;-58
2022/11/17 13:46:48;;;;;;;9.25;2.13;;;;;;;;;;5058965;28;20221;-58
2022/11/17 13:49:32;;;;;;;6.55;1.60;;;;;;;;;;5060313;28;20202;-56
2022/11/17 13:51:59;;;;;;;8.25;1.65;;;;;;;;;;5055006;28;20201;-58
2022/11/17 13:54:26;;;;;;;9.02;1.50;;;;;;;;;;5061447;28;20216;-58
2022/11/17 13:56:54;;;;;;;8.00;1.77;;;;;;;;;;5061209;28;20198;-58
2022/11/17 13:59:23;;;;;;;5.18;1.40;;;;;;;;;;5060688;28;20503;-57
2022/11/17 14:01:50;;;;;;;7.13;2.10;;;;;;;;;;5055746;28;20521;-57
2022/11/17 14:04:18;;;;;;;9.63;1.85;;;;;;;;;;5041052;28;20229;-57
2022/11/17 14:06:57;;;;;;;6.10;2.13;;;;;;;;;;5041182;28;20236;-58
2022/11/17 14:09:25;;;;;;;13.80;2.20;;;;;;;;;;5040582;28;20396;-59
2022/11/17 14:11:52;;;;;;;11.52;1.95;;;;;;;;;;5041026;28;20213;-59
2022/11/17 14:14:20;;;;;;;10.00;1.88;;;;;;;;;;5053012;28;20507;-58
2022/11/17 14:16:46;;;;;;;14.43;2.10;;;;;;;;;;5061261;28;20201;-58
2022/11/17 14:19:26;;;;;;;6.00;2.10;;;;;;;;;;5060546;28;20216;-59
2022/11/17 14:22:03;;;;;;;9.02;1.92;;;;;;;;;;5060673;28;20276;-58
2022/11/17 14:24:31;;;;;;;8.90;2.40;;;;;;;;;;5060478;28;20435;-59
2022/11/17 14:26:58;;;;;;;6.78;1.77;;;;;;;;;;5060614;28;20241;-59
2022/11/17 14:29:24;;;;;;;11.05;2.38;;;;;;;;;;5060315;28;20225;-59
2022/11/17 14:31:51;;;;;;;10.18;1.88;;;;;;;;;;5060752;28;20504;-59
2022/11/17 14:34:17;;;;;;;8.93;1.88;;;;;;;;;;5060580;28;20204;-59
2022/11/17 14:36:43;;;;;;;7.15;2.05;;;;;;;;;;5060628;28;20201;-59
2022/11/17 14:39:12;;;;;;;5.95;1.90;;;;;;;;;;5060474;28;20242;-59
2022/11/17 14:41:40;;;;;;;8.40;1.70;;;;;;;;;;5060822;28;20301;-59
2022/11/17 14:44:07;;;;;;;9.52;2.05;;;;;;;;;;5060432;28;20233;-59
2022/11/17 14:46:33;;;;;;;10.60;2.22;;;;;;;;;;5060328;28;20401;-59
2022/11/17 14:49:00;;;;;;;9.98;1.70;;;;;;;;;;5060332;28;20509;-59
2022/11/17 14:51:26;;;;;;;6.40;2.17;;;;;;;;;;5060197;28;20398;-59
2022/11/17 14:53:53;;;;;;;10.23;2.22;;;;;;;;;;5060470;28;20501;-60
2022/11/17 14:56:20;;;;;;;8.80;1.92;;;;;;;;;;5060378;28;20558;-60
2022/11/17 14:58:48;;;;;;;9.48;1.95;;;;;;;;;;5059913;28;20212;-60
2022/11/17 15:01:16;;;;;;;8.38;2.00;;;;;;;;;;5060012;28;20205;-60
2022/11/17 15:03:42;;;;;;;7.63;1.80;;;;;;;;;;5059836;28;20205;-60
2022/11/17 15:06:09;;;;;;;8.85;2.33;;;;;;;;;;5059820;28;20211;-60
2022/11/17 15:08:36;;;;;;;9.30;2.50;;;;;;;;;;5059536;28;20213;-60
2022/11/17 15:11:02;;;;;;;11.90;2.22;;;;;;;;;;5059639;28;20508;-59